Time;durP1;ratioP1;P1;durP2;ratioP2;P2;SDS_P1;SDS_P2;PMS_P1;PMS_P2;Temp;Humidity;BMP_temperature;BMP_pressure;BME280_temperature;BME280_humidity;BME280_pressure;Samples;Min_cycle;Max_cycle;Signal;HPM_P1;HPM_P2
2023/05/23 00:00:50;;;;;;;;;;;;;;;15.01;80.73;101844.16;5075236;28;19928;-60
2023/05/23 00:03:16;;;;;;;;;;;;;;;14.94;80.61;101836.00;5078011;28;19924;-60
2023/05/23 00:05:41;;;;;;;;;;;;;;;14.91;81.07;101839.03;5078813;28;20388;-60
2023/05/23 00:08:06;;;;;;;;;;;;;;;14.85;81.07;101837.03;5082477;28;19923;-60
2023/05/23 00:10:31;;;;;;;;;;;;;;;14.83;81.32;101841.75;5079450;28;19912;-60
2023/05/23 00:12:57;;;;;;;;;;;;;;;14.81;81.60;101849.09;5088450;28;19995;-60
2023/05/23 00:15:22;;;;;;;;;;;;;;;14.75;80.86;101839.94;5080151;28;19966;-60
2023/05/23 00:17:47;;;;;;;;;;;;;;;14.73;81.25;101846.44;5086607;28;19916;-60
2023/05/23 00:20:12;;;;;;;;;;;;;;;14.71;81.49;101848.47;5076180;28;19998;-60
2023/05/23 00:22:47;;;;;;;;;;;;;;;14.69;81.20;101842.44;5082281;28;19920;-60
2023/05/23 00:25:12;;;;;;;;;;;;;;;14.70;81.40;101844.13;5080098;28;19966;-60
2023/05/23 00:27:37;;;;;;;;;;;;;;;14.70;81.13;101841.44;5085083;28;20518;-60
2023/05/23 00:30:02;;;;;;;;;;;;;;;14.70;80.97;101852.13;5083485;28;19985;-60
2023/05/23 00:32:27;;;;;;;;;;;;;;;14.69;81.42;101848.63;5084011;28;19920;-60
2023/05/23 00:34:53;;;;;;;;;;;;;;;14.67;82.42;101847.97;5084134;28;19935;-60
2023/05/23 00:37:19;;;;;;;;;;;;;;;14.68;81.50;101862.16;5078093;28;20378;-60
2023/05/23 00:39:44;;;;;;;;;;;;;;;14.65;82.09;101868.69;5085383;28;19918;-60
2023/05/23 00:42:09;;;;;;;;;;;;;;;14.63;82.10;101864.53;5085048;28;20301;-60
2023/05/23 00:44:35;;;;;;;;;;;;;;;14.63;81.81;101872.56;5076439;28;19916;-60
2023/05/23 00:47:00;;;;;;;;;;;;;;;14.59;80.94;101871.22;5080554;28;20053;-60
2023/05/23 00:49:26;;;;;;;;;;;;;;;14.53;81.41;101868.25;5083605;28;20133;-60
2023/05/23 00:51:52;;;;;;;;;;;;;;;14.53;81.48;101880.78;5081472;28;20523;-60
2023/05/23 00:54:17;;;;;;;;;;;;;;;14.49;82.00;101871.44;5068636;28;19935;-60
2023/05/23 00:56:43;;;;;;;;;;;;;;;14.49;81.80;101877.63;5077337;28;19916;-60
2023/05/23 00:59:08;;;;;;;;;;;;;;;14.44;82.74;101879.09;5081474;28;19917;-60
2023/05/23 01:01:35;;;;;;;;;;;;;;;14.44;81.88;101879.09;5078850;28;20033;-60
2023/05/23 01:04:01;;;;;;;;;;;;;;;14.38;82.37;101877.91;5084527;28;20010;-60
2023/05/23 01:06:29;;;;;;;;;;;;;;;14.37;82.39;101883.44;5087218;28;20592;-61
2023/05/23 01:08:54;;;;;;;;;;;;;;;14.36;82.16;101887.13;5074428;28;19920;-61
2023/05/23 01:11:25;;;;;;;;;;;;;;;14.34;81.78;101879.28;5080440;28;19924;-61
2023/05/23 01:13:54;;;;;;;;;;;;;;;14.28;82.26;101877.28;5080660;28;19920;-61
2023/05/23 01:16:28;;;;;;;;;;;;;;;14.22;81.78;101885.97;5086764;28;20066;-61
2023/05/23 01:18:57;;;;;;;;;;;;;;;14.17;81.97;101883.81;5072598;28;19917;-60
2023/05/23 01:21:24;;;;;;;;;;;;;;;14.13;82.44;101889.66;5070459;28;19971;-60
2023/05/23 01:23:58;;;;;;;;;;;;;;;14.10;82.74;101882.81;5080197;28;19921;-60
2023/05/23 01:26:33;;;;;;;;;;;;;;;14.11;83.11;101891.66;5072706;28;19922;-59
2023/05/23 01:29:04;;;;;;;;;;;;;;;14.07;83.19;101887.66;5076559;28;19916;-60
2023/05/23 01:31:31;;;;;;;;;;;;;;;14.02;83.44;101892.66;5076454;28;20001;-60
2023/05/23 01:33:56;;;;;;;;;;;;;;;13.99;82.85;101898.34;5074367;28;20476;-60
2023/05/23 01:36:22;;;;;;;;;;;;;;;13.99;83.36;101896.50;5077592;28;19978;-60
2023/05/23 01:38:47;;;;;;;;;;;;;;;14.02;83.29;101892.66;5077451;28;20493;-60
2023/05/23 01:41:12;;;;;;;;;;;;;;;14.01;84.26;101893.66;5077268;28;19958;-60
2023/05/23 01:43:37;;;;;;;;;;;;;;;14.00;83.67;101892.84;5083117;28;20304;-60
2023/05/23 01:46:03;;;;;;;;;;;;;;;13.95;83.79;101892.50;5078377;28;19962;-60
2023/05/23 01:48:29;;;;;;;;;;;;;;;13.91;83.15;101896.50;5079936;28;19923;-60
2023/05/23 01:50:56;;;;;;;;;;;;;;;13.88;83.29;101896.84;5071808;28;19989;-60
2023/05/23 01:53:21;;;;;;;;;;;;;;;13.85;83.88;101895.31;5079858;28;19921;-60
2023/05/23 01:55:47;;;;;;;;;;;;;;;13.83;84.18;101910.66;5080422;28;19916;-60
2023/05/23 01:58:12;;;;;;;;;;;;;;;13.83;83.96;101905.31;5083971;28;19985;-60
2023/05/23 02:00:37;;;;;;;;;;;;;;;13.86;84.59;101905.00;5087187;28;19916;-60
2023/05/23 02:03:03;;;;;;;;;;;;;;;13.88;84.61;101902.19;5089323;28;19920;-61
2023/05/23 02:05:28;;;;;;;;;;;;;;;13.89;85.10;101909.19;5084459;28;19916;-60
2023/05/23 02:07:53;;;;;;;;;;;;;;;13.91;84.60;101920.53;5080812;28;19938;-60
2023/05/23 02:10:19;;;;;;;;;;;;;;;13.94;85.28;101912.19;5082551;28;20399;-61
2023/05/23 02:12:44;;;;;;;;;;;;;;;13.93;84.89;101918.53;5081305;28;19920;-61
2023/05/23 02:15:09;;;;;;;;;;;;;;;13.97;84.95;101916.38;5085593;28;20425;-61
2023/05/23 02:17:35;;;;;;;;;;;;;;;14.01;85.40;101917.72;5082830;28;19942;-61
2023/05/23 02:20:00;;;;;;;;;;;;;;;14.04;85.30;101920.88;5073888;28;19931;-61
2023/05/23 02:22:25;;;;;;;;;;;;;;;14.09;85.22;101923.88;5080240;28;19979;-61
2023/05/23 02:24:51;;;;;;;;;;;;;;;14.15;85.30;101925.03;5093552;28;19924;-59
2023/05/23 02:27:16;;;;;;;;;;;;;;;14.19;85.50;101932.56;5084670;28;19921;-60
2023/05/23 02:29:41;;;;;;;;;;;;;;;14.23;84.98;101928.56;5074256;28;19920;-60
2023/05/23 02:32:06;;;;;;;;;;;;;;;14.26;84.77;101922.03;5086988;28;19920;-59
2023/05/23 02:34:31;;;;;;;;;;;;;;;14.23;84.46;101931.22;5080069;28;19912;-60
2023/05/23 02:36:57;;;;;;;;;;;;;;;14.21;84.15;101925.22;5076485;28;19926;-60
2023/05/23 02:39:22;;;;;;;;;;;;;;;14.19;84.58;101921.88;5074436;28;19920;-60
2023/05/23 02:41:47;;;;;;;;;;;;;;;14.22;84.47;101924.22;5085046;28;20381;-60
2023/05/23 02:44:12;;;;;;;;;;;;;;;14.23;84.47;101928.56;5079549;28;20297;-60
2023/05/23 02:46:37;;;;;;;;;;;;;;;14.24;83.82;101926.72;5083885;28;19912;-60
2023/05/23 02:49:02;;;;;;;;;;;;;;;14.22;84.00;101929.56;5080684;28;19916;-60
2023/05/23 02:51:28;;;;;;;;;;;;;;;14.14;83.56;101926.03;5084103;28;20398;-61
2023/05/23 02:53:53;;;;;;;;;;;;;;;14.09;83.94;101926.53;5080036;28;19916;-61
2023/05/23 02:56:21;;;;;;;;;;;;;;;14.09;83.81;101928.38;5085280;28;20380;-61
2023/05/23 02:58:46;;;;;;;;;;;;;;;14.09;83.71;101928.38;5073600;28;19917;-61
2023/05/23 03:01:11;;;;;;;;;;;;;;;14.08;83.97;101927.53;5072824;28;19922;-61
2023/05/23 03:03:36;;;;;;;;;;;;;;;14.04;83.80;101925.38;5086155;28;19924;-61
2023/05/23 03:06:02;;;;;;;;;;;;;;;14.00;83.74;101932.91;5076317;28;19916;-61
2023/05/23 03:08:27;;;;;;;;;;;;;;;13.95;83.42;101933.41;5071751;28;19924;-61
2023/05/23 03:10:52;;;;;;;;;;;;;;;13.94;83.78;101923.72;5075644;28;19923;-61
2023/05/23 03:13:18;;;;;;;;;;;;;;;13.92;83.81;101920.38;5080571;28;19923;-61
2023/05/23 03:15:43;;;;;;;;;;;;;;;13.95;84.05;101920.03;5086229;28;19924;-61
2023/05/23 03:18:08;;;;;;;;;;;;;;;13.98;83.47;101918.88;5069543;28;20407;-60
2023/05/23 03:20:33;;;;;;;;;;;;;;;13.99;83.51;101927.72;5083482;28;19916;-61
2023/05/23 03:22:59;;;;;;;;;;;;;;;14.01;83.87;101923.88;5078168;28;19920;-61
2023/05/23 03:25:24;;;;;;;;;;;;;;;14.03;84.18;101929.06;5080362;28;19924;-60
2023/05/23 03:27:50;;;;;;;;;;;;;;;14.05;84.12;101930.56;5073292;28;20052;-60
2023/05/23 03:30:15;;;;;;;;;;;;;;;14.05;83.78;101925.22;5073687;28;19912;-60
2023/05/23 03:32:41;;;;;;;;;;;;;;;14.03;83.58;101927.22;5077728;28;19920;-61
2023/05/23 03:35:06;;;;;;;;;;;;;;;14.02;83.79;101935.41;5084469;28;19920;-60
2023/05/23 03:37:31;;;;;;;;;;;;;;;14.02;84.18;101933.56;5080124;28;20271;-61
2023/05/23 03:39:56;;;;;;;;;;;;;;;14.06;83.90;101934.06;5075545;28;19970;-61
2023/05/23 03:42:22;;;;;;;;;;;;;;;14.06;84.30;101926.03;5077157;28;20314;-61
2023/05/23 03:44:47;;;;;;;;;;;;;;;14.02;83.89;101941.56;5084861;28;19942;-61
2023/05/23 03:47:12;;;;;;;;;;;;;;;14.02;84.06;101940.75;5078428;28;19923;-60
2023/05/23 03:49:37;;;;;;;;;;;;;;;14.00;84.29;101942.75;5078848;28;19916;-61
2023/05/23 03:52:03;;;;;;;;;;;;;;;14.00;83.94;101938.25;5080144;28;19912;-60
2023/05/23 03:54:28;;;;;;;;;;;;;;;14.02;84.35;101951.41;5079854;28;19917;-60
2023/05/23 03:56:53;;;;;;;;;;;;;;;14.04;84.31;101947.59;5076487;28;19920;-61
2023/05/23 03:59:18;;;;;;;;;;;;;;;14.03;83.86;101947.75;5082252;28;19923;-59
2023/05/23 04:01:43;;;;;;;;;;;;;;;14.03;84.22;101951.25;5079458;28;19913;-59
2023/05/23 04:04:08;;;;;;;;;;;;;;;14.03;83.66;101958.44;5080085;28;20066;-60
2023/05/23 04:06:34;;;;;;;;;;;;;;;14.02;83.60;101946.09;5080783;28;19916;-59
2023/05/23 04:09:00;;;;;;;;;;;;;;;14.00;83.59;101953.44;5076063;28;19955;-60
2023/05/23 04:11:25;;;;;;;;;;;;;;;14.00;83.58;101951.59;5078515;28;19916;-62
2023/05/23 04:13:50;;;;;;;;;;;;;;;14.01;83.78;101960.44;5082145;28;20024;-60
2023/05/23 04:16:16;;;;;;;;;;;;;;;14.05;83.81;101956.44;5082862;28;20370;-61
2023/05/23 04:18:42;;;;;;;;;;;;;;;14.08;84.09;101962.28;5085251;28;19977;-59
2023/05/23 04:21:07;;;;;;;;;;;;;;;14.07;83.71;101967.78;5078429;28;20390;-60
2023/05/23 04:23:32;;;;;;;;;;;;;;;14.08;83.36;101972.13;5083489;28;19920;-60
2023/05/23 04:25:58;;;;;;;;;;;;;;;14.05;83.36;101972.47;5080094;28;19920;-60
2023/05/23 04:28:23;;;;;;;;;;;;;;;13.96;82.92;101968.94;5073072;28;19917;-60
2023/05/23 04:30:48;;;;;;;;;;;;;;;13.91;83.47;101974.78;5071440;28;19920;-60
2023/05/23 04:33:14;;;;;;;;;;;;;;;13.87;83.55;101981.44;5076446;28;19923;-60
2023/05/23 04:35:39;;;;;;;;;;;;;;;13.87;83.92;101984.09;5078133;28;19920;-60
2023/05/23 04:38:04;;;;;;;;;;;;;;;13.86;84.05;101981.59;5072440;28;19970;-60
2023/05/23 04:40:30;;;;;;;;;;;;;;;13.88;83.71;101984.97;5073890;28;19920;-60
2023/05/23 04:42:56;;;;;;;;;;;;;;;13.89;84.34;101984.81;5072992;28;19934;-60
2023/05/23 04:45:21;;;;;;;;;;;;;;;13.89;83.68;101991.97;5067931;28;19962;-60
2023/05/23 04:47:46;;;;;;;;;;;;;;;13.88;83.30;102001.00;5083750;28;20342;-60
2023/05/23 04:50:13;;;;;;;;;;;;;;;13.84;83.74;102000.47;5080085;28;19957;-60
2023/05/23 04:52:38;;;;;;;;;;;;;;;13.81;83.83;102006.13;5076342;28;20034;-60
2023/05/23 04:55:05;;;;;;;;;;;;;;;13.76;83.82;102005.78;5072918;28;19990;-60
2023/05/23 04:57:30;;;;;;;;;;;;;;;13.76;83.61;102007.63;5080779;28;20011;-60
2023/05/23 04:59:56;;;;;;;;;;;;;;;13.75;83.55;102013.97;5070094;28;20039;-61
2023/05/23 05:02:21;;;;;;;;;;;;;;;13.71;84.10;102016.13;5072120;28;19920;-60
2023/05/23 05:04:46;;;;;;;;;;;;;;;13.73;84.12;102023.97;5072177;28;19926;-61
2023/05/23 05:07:11;;;;;;;;;;;;;;;13.78;84.24;102022.47;5082906;28;20477;-61
2023/05/23 05:09:37;;;;;;;;;;;;;;;13.82;84.32;102021.16;5082533;28;19980;-60
2023/05/23 05:12:02;;;;;;;;;;;;;;;13.86;84.56;102027.00;5080997;28;19913;-60
2023/05/23 05:14:27;;;;;;;;;;;;;;;13.88;84.45;102017.00;5076525;28;19924;-59
2023/05/23 05:16:53;;;;;;;;;;;;;;;13.89;84.03;102027.53;5081053;28;20424;-60
2023/05/23 05:19:19;;;;;;;;;;;;;;;13.91;83.93;102022.03;5068835;28;19951;-59
2023/05/23 05:21:44;;;;;;;;;;;;;;;13.92;83.92;102031.72;5078168;28;19919;-60
2023/05/23 05:24:10;;;;;;;;;;;;;;;13.90;83.92;102029.19;5070270;28;19912;-60
2023/05/23 05:26:35;;;;;;;;;;;;;;;13.88;83.76;102039.22;5076600;28;19985;-60
2023/05/23 05:29:01;;;;;;;;;;;;;;;13.84;83.28;102034.34;5070876;28;19912;-60
2023/05/23 05:31:26;;;;;;;;;;;;;;;13.80;83.42;102035.66;5078893;28;20366;-60
2023/05/23 05:33:51;;;;;;;;;;;;;;;13.78;82.96;102045.66;5072989;28;19913;-60
2023/05/23 05:36:18;;;;;;;;;;;;;;;13.78;83.08;102048.34;5067313;28;19920;-60
2023/05/23 05:38:43;;;;;;;;;;;;;;;13.77;83.18;102039.50;5069213;28;19913;-60
2023/05/23 05:41:08;;;;;;;;;;;;;;;13.77;83.10;102057.34;5081528;28;19916;-60
2023/05/23 05:43:34;;;;;;;;;;;;;;;13.74;82.90;102061.19;5067830;28;19950;-60
2023/05/23 05:45:59;;;;;;;;;;;;;;;13.67;82.60;102060.16;5077255;28;19953;-60
2023/05/23 05:48:25;;;;;;;;;;;;;;;13.65;82.94;102067.50;5075467;28;20016;-60
2023/05/23 05:50:50;;;;;;;;;;;;;;;13.62;82.73;102068.66;5068050;28;19916;-60
2023/05/23 05:53:15;;;;;;;;;;;;;;;13.59;82.88;102068.97;5077831;28;19916;-60
2023/05/23 05:55:40;;;;;;;;;;;;;;;13.54;82.60;102073.94;5076304;28;20370;-60
2023/05/23 05:58:06;;;;;;;;;;;;;;;13.49;82.54;102078.91;5074519;28;19912;-61
2023/05/23 06:00:31;;;;;;;;;;;;;;;13.49;82.47;102086.09;5080626;28;19927;-60
2023/05/23 06:02:56;;;;;;;;;;;;;;;13.49;82.41;102081.59;5068734;28;19924;-60
2023/05/23 06:05:22;;;;;;;;;;;;;;;13.50;82.63;102087.75;5075477;28;20417;-60
2023/05/23 06:07:47;;;;;;;;;;;;;;;13.47;82.33;102088.91;5068377;28;19947;-60
2023/05/23 06:10:13;;;;;;;;;;;;;;;13.47;82.69;102090.75;5076497;28;19973;-60
2023/05/23 06:12:38;;;;;;;;;;;;;;;13.42;81.94;102077.06;5068523;28;19957;-60
2023/05/23 06:15:04;;;;;;;;;;;;;;;13.36;82.03;102091.88;5076158;28;20007;-61
2023/05/23 06:17:29;;;;;;;;;;;;;;;13.31;82.14;102095.00;5072059;28;19956;-59
2023/05/23 06:19:54;;;;;;;;;;;;;;;13.30;81.86;102100.50;5070806;28;19923;-60
2023/05/23 06:22:20;;;;;;;;;;;;;;;13.27;81.80;102101.63;5071531;28;19930;-59
2023/05/23 06:24:45;;;;;;;;;;;;;;;13.22;81.01;102095.09;5076556;28;20382;-59
2023/05/23 06:27:10;;;;;;;;;;;;;;;13.08;81.08;102104.50;5068605;28;20421;-61
2023/05/23 06:29:36;;;;;;;;;;;;;;;13.00;81.20;102105.25;5070499;28;19917;-60
2023/05/23 06:32:01;;;;;;;;;;;;;;;13.01;81.83;102098.13;5078746;28;19923;-61
2023/05/23 06:34:26;;;;;;;;;;;;;;;13.01;81.96;102103.44;5074403;28;20535;-61
2023/05/23 06:36:51;;;;;;;;;;;;;;;13.01;81.66;102106.94;5072404;28;19966;-61
2023/05/23 06:39:16;;;;;;;;;;;;;;;13.00;81.80;102120.41;5068917;28;19955;-61
2023/05/23 06:41:42;;;;;;;;;;;;;;;13.03;81.72;102114.78;5074947;28;20006;-61
2023/05/23 06:44:07;;;;;;;;;;;;;;;13.03;81.64;102115.63;5067710;28;19932;-60
2023/05/23 06:46:32;;;;;;;;;;;;;;;13.00;81.61;102121.25;5071312;28;19920;-60
2023/05/23 06:48:57;;;;;;;;;;;;;;;12.99;81.23;102118.75;5074581;28;20373;-60
2023/05/23 06:51:22;;;;;;;;;;;;;;;13.03;81.29;102133.47;5073974;28;19991;-61
2023/05/23 06:53:48;;;;;;;;;;;;;;;13.03;80.72;102131.63;5070804;28;20008;-61
2023/05/23 06:56:13;;;;;;;;;;;;;;;13.03;80.21;102126.31;5081642;28;19917;-60
2023/05/23 06:58:38;;;;;;;;;;;;;;;13.05;80.19;102136.81;5069755;28;19916;-60
2023/05/23 07:01:03;;;;;;;;;;;;;;;13.13;79.87;102126.19;5072601;28;19916;-60
2023/05/23 07:03:29;;;;;;;;;;;;;;;13.20;79.19;102129.94;5074016;28;19920;-61
2023/05/23 07:05:54;;;;;;;;;;;;;;;13.27;79.16;102144.31;5078182;28;19970;-60
2023/05/23 07:08:20;;;;;;;;;;;;;;;13.38;78.92;102143.25;5074599;28;20434;-61
2023/05/23 07:10:45;;;;;;;;;;;;;;;13.48;78.56;102146.63;5083672;28;20407;-61
2023/05/23 07:13:10;;;;;;;;;;;;;;;13.58;78.46;102157.19;5083809;28;19912;-61
2023/05/23 07:15:35;;;;;;;;;;;;;;;13.65;78.24;102163.59;5087634;28;20165;-61
2023/05/23 07:18:00;;;;;;;;;;;;;;;13.71;77.67;102151.44;5075004;28;19920;-61
2023/05/23 07:20:25;;;;;;;;;;;;;;;13.68;77.15;102154.44;5077338;28;19962;-61
2023/05/23 07:22:51;;;;;;;;;;;;;;;13.82;76.94;102159.16;5081902;28;19978;-61
2023/05/23 07:25:16;;;;;;;;;;;;;;;13.88;76.21;102169.22;5074449;28;19917;-61
2023/05/23 07:27:42;;;;;;;;;;;;;;;13.92;76.03;102159.91;5075502;28;19913;-61
2023/05/23 07:30:08;;;;;;;;;;;;;;;13.98;75.40;102171.75;5078521;28;19959;-61
2023/05/23 07:32:33;;;;;;;;;;;;;;;13.98;75.07;102161.91;5086578;28;19958;-61
2023/05/23 07:34:58;;;;;;;;;;;;;;;13.99;74.31;102170.75;5077027;28;19955;-61
2023/05/23 07:37:26;;;;;;;;;;;;;;;13.97;74.10;102172.75;5078134;28;20117;-61
2023/05/23 07:39:51;;;;;;;;;;;;;;;13.96;73.83;102179.94;5076307;28;19916;-61
2023/05/23 07:42:16;;;;;;;;;;;;;;;14.03;73.80;102180.97;5081474;28;19950;-61
2023/05/23 07:44:41;;;;;;;;;;;;;;;13.89;73.46;102182.41;5076280;28;20387;-61
2023/05/23 07:47:06;;;;;;;;;;;;;;;13.88;73.45;102180.75;5076140;28;19928;-61
2023/05/23 07:49:32;;;;;;;;;;;;;;;13.94;73.70;102179.25;5084258;28;20404;-59
2023/05/23 07:51:57;;;;;;;;;;;;;;;14.00;73.76;102175.13;5080178;28;19921;-59
2023/05/23 07:54:22;;;;;;;;;;;;;;;14.06;73.64;102185.16;5081610;28;19919;-60
2023/05/23 07:56:47;;;;;;;;;;;;;;;14.03;73.47;102188.13;5073419;28;20336;-60
2023/05/23 07:59:12;;;;;;;;;;;;;;;14.02;73.22;102186.47;5084385;28;20006;-60
2023/05/23 08:01:37;;;;;;;;;;;;;;;13.95;73.03;102183.59;5078897;28;19932;-61
2023/05/23 08:04:03;;;;;;;;;;;;;;;13.91;73.35;102187.59;5086940;28;19923;-60
2023/05/23 08:06:28;;;;;;;;;;;;;;;13.92;72.82;102186.59;5078733;28;19916;-61
2023/05/23 08:08:53;;;;;;;;;;;;;;;13.88;72.83;102179.91;5079589;28;19912;-61
2023/05/23 08:11:18;;;;;;;;;;;;;;;13.80;73.16;102191.34;5076412;28;19925;-61
2023/05/23 08:13:43;;;;;;;;;;;;;;;13.82;73.36;102185.84;5074255;28;19916;-61
2023/05/23 08:16:09;;;;;;;;;;;;;;;13.85;73.43;102190.88;5086068;28;19922;-60
2023/05/23 08:18:35;;;;;;;;;;;;;;;13.87;73.22;102189.72;5080475;28;19991;-60
2023/05/23 08:21:01;;;;;;;;;;;;;;;13.89;73.46;102202.94;5085649;28;19916;-60
2023/05/23 08:23:27;;;;;;;;;;;;;;;13.91;73.35;102200.94;5074238;28;19932;-60
2023/05/23 08:25:53;;;;;;;;;;;;;;;13.92;73.27;102194.63;5076943;28;19965;-60
2023/05/23 08:28:18;;;;;;;;;;;;;;;13.91;73.66;102196.44;5072094;28;19924;-60
2023/05/23 08:30:44;;;;;;;;;;;;;;;13.93;73.45;102197.13;5078672;28;19919;-61
2023/05/23 08:33:09;;;;;;;;;;;;;;;13.92;73.81;102207.97;5081683;28;20011;-60
2023/05/23 08:35:35;;;;;;;;;;;;;;;13.87;73.44;102204.91;5084436;28;20731;-60
2023/05/23 08:38:01;;;;;;;;;;;;;;;13.79;73.40;102200.38;5076391;28;20011;-60
2023/05/23 08:40:28;;;;;;;;;;;;;;;13.72;73.96;102195.81;5069491;28;19916;-60
2023/05/23 08:42:53;;;;;;;;;;;;;;;13.75;74.61;102207.03;5082665;28;20458;-61
2023/05/23 08:45:18;;;;;;;;;;;;;;;13.83;74.86;102199.06;5082044;28;20602;-61
2023/05/23 08:47:44;;;;;;;;;;;;;;;13.96;75.03;102206.66;5073695;28;19923;-61
2023/05/23 08:50:13;;;;;;;;;;;;;;;14.08;74.96;102209.88;5081033;28;19966;-61
2023/05/23 08:52:55;;;;;;;;;;;;;;;14.14;74.28;102207.38;5074761;28;19912;-61
2023/05/23 08:55:22;;;;;;;;;;;;;;;14.13;73.99;102211.06;5079446;28;19912;-61
2023/05/23 08:57:48;;;;;;;;;;;;;;;14.18;74.02;102218.63;5079631;28;19923;-61
2023/05/23 09:00:13;;;;;;;;;;;;;;;14.19;73.74;102213.09;5074896;28;20010;-61
2023/05/23 09:02:41;;;;;;;;;;;;;;;14.19;73.87;102218.44;5065892;28;20304;-61
2023/05/23 09:05:08;;;;;;;;;;;;;;;14.25;73.93;102224.97;5069386;28;19919;-61
2023/05/23 09:07:33;;;;;;;;;;;;;;;14.37;73.64;102225.50;5076039;28;20009;-61
2023/05/23 09:09:58;;;;;;;;;;;;;;;14.48;73.71;102231.47;5076008;28;19955;-61
2023/05/23 09:12:24;;;;;;;;;;;;;;;14.54;73.03;102230.81;5076876;28;19912;-61
2023/05/23 09:14:49;;;;;;;;;;;;;;;14.58;72.47;102231.31;5085839;28;19923;-61
2023/05/23 09:17:15;;;;;;;;;;;;;;;14.65;72.18;102228.81;5084785;28;19916;-61
2023/05/23 09:19:41;;;;;;;;;;;;;;;14.70;72.27;102232.66;5083519;28;19959;-61
2023/05/23 09:22:07;;;;;;;;;;;;;;;14.74;71.96;102231.34;5077916;28;19927;-61
2023/05/23 09:24:32;;;;;;;;;;;;;;;14.81;71.78;102232.38;5086716;28;19916;-61
2023/05/23 09:26:57;;;;;;;;;;;;;;;14.86;70.59;102235.38;5075479;28;20439;-61
2023/05/23 09:29:22;;;;;;;;;;;;;;;14.97;70.50;102236.91;5070830;28;19923;-61
2023/05/23 09:31:48;;;;;;;;;;;;;;;15.06;70.46;102243.94;5084207;28;19912;-61
2023/05/23 09:34:13;;;;;;;;;;;;;;;15.15;69.63;102244.78;5079835;28;20024;-62
2023/05/23 09:36:39;;;;;;;;;;;;;;;15.22;69.11;102239.59;5079267;28;19998;-61
2023/05/23 09:39:05;;;;;;;;;;;;;;;15.25;68.43;102242.78;5083933;28;19916;-59
2023/05/23 09:41:32;;;;;;;;;;;;;;;15.33;68.46;102240.13;5081965;28;19912;-60
2023/05/23 09:43:57;;;;;;;;;;;;;;;15.39;68.15;102247.47;5080453;28;19966;-60
2023/05/23 09:46:26;;;;;;;;;;;;;;;15.44;67.39;102247.81;5077384;28;19920;-60
2023/05/23 09:48:52;;;;;;;;;;;;;;;15.56;66.80;102245.59;5075339;28;19917;-60
2023/05/23 09:51:19;;;;;;;;;;;;;;;15.68;66.19;102243.47;5077631;28;19920;-60
2023/05/23 09:53:44;;;;;;;;;;;;;;;15.74;65.61;102248.13;5070179;28;19917;-62
2023/05/23 09:56:10;;;;;;;;;;;;;;;15.89;65.33;102242.91;5070064;28;19923;-60
2023/05/23 09:58:35;;;;;;;;;;;;;;;15.99;65.05;102241.72;5075848;28;20313;-60
2023/05/23 10:01:04;;;;;;;;;;;;;;;16.06;64.84;102244.53;5081060;28;19919;-60
2023/05/23 10:03:32;;;;;;;;;;;;;;;16.14;64.39;102254.41;5069505;28;20484;-61
2023/05/23 10:06:06;;;;;;;;;;;;;;;16.27;63.14;102242.13;5072257;28;20014;-61
2023/05/23 10:08:41;;;;;;;;;;;;;;;16.40;61.59;102242.41;5066956;28;19928;-61
2023/05/23 10:11:12;;;;;;;;;;;;;;;16.67;61.72;102242.97;5071225;28;20394;-61
2023/05/23 10:13:40;;;;;;;;;;;;;;;16.91;62.20;102242.00;5068775;28;19924;-61
2023/05/23 10:16:24;;;;;;;;;;;;;;;17.05;61.13;102238.53;5076118;28;20302;-60
2023/05/23 10:18:56;;;;;;;;;;;;;;;17.16;60.17;102250.72;5067219;28;19926;-60
2023/05/23 10:21:28;;;;;;;;;;;;;;;17.17;59.58;102255.91;5075940;28;20385;-61
2023/05/23 10:23:54;;;;;;;;;;;;;;;17.16;58.73;102251.53;5079438;28;20282;-61
2023/05/23 10:26:20;;;;;;;;;;;;;;;17.16;58.28;102258.75;5072444;28;19920;-61
2023/05/23 10:28:48;;;;;;;;;;;;;;;17.31;57.93;102254.25;5071033;28;19920;-61
2023/05/23 10:31:13;;;;;;;;;;;;;;;17.54;56.99;102257.75;5076841;28;19965;-61
2023/05/23 10:33:42;;;;;;;;;;;;;;;17.82;56.39;102243.75;5078897;28;20324;-61
2023/05/23 10:36:09;;;;;;;;;;;;;;;18.11;55.44;102251.84;5075519;28;19923;-61
2023/05/23 10:38:45;;;;;;;;;;;;;;;18.28;54.33;102244.41;5076300;28;19920;-61
2023/05/23 10:41:22;;;;;;;;;;;;;;;18.45;55.33;102253.94;5071375;28;19917;-61
2023/05/23 10:43:50;;;;;;;;;;;;;;;18.61;54.72;102252.06;5084123;28;20557;-61
2023/05/23 10:46:18;;;;;;;;;;;;;;;18.50;53.90;102254.22;5072431;28;20058;-61
2023/05/23 10:48:43;;;;;;;;;;;;;;;18.39;53.90;102252.00;5072721;28;20563;-61
2023/05/23 10:51:10;;;;;;;;;;;;;;;18.39;54.12;102243.94;5070963;28;19932;-61
2023/05/23 10:53:45;;;;;;;;;;;;;;;18.54;53.45;102249.31;5082446;28;20070;-61
2023/05/23 10:56:18;;;;;;;;;;;;;;;18.55;53.41;102257.19;5074938;28;19917;-61
2023/05/23 10:58:43;;;;;;;;;;;;;;;18.64;53.11;102251.72;5073642;28;19965;-62
2023/05/23 11:01:11;;;;;;;;;;;;;;;18.74;52.19;102245.00;5081063;28;19916;-61
2023/05/23 11:03:46;;;;;;;;;;;;;;;18.86;52.12;102248.03;5070398;28;19917;-61
2023/05/23 11:06:31;;;;;;;;;;;;;;;18.90;51.37;102246.63;5069220;28;19917;-62
2023/05/23 11:09:03;;;;;;;;;;;;;;;18.97;50.47;102249.38;5070891;28;20003;-61
2023/05/23 11:11:47;;;;;;;;;;;;;;;19.12;49.59;102248.31;5083685;28;19920;-61
2023/05/23 11:14:13;;;;;;;;;;;;;;;19.36;49.61;102248.91;5075327;28;19955;-61
2023/05/23 11:16:44;;;;;;;;;;;;;;;19.57;49.75;102242.69;5082601;28;19947;-61
2023/05/23 11:19:18;;;;;;;;;;;;;;;19.60;49.95;102239.59;5069630;28;19954;-62
2023/05/23 11:21:44;;;;;;;;;;;;;;;19.42;48.91;102251.69;5073386;28;19942;-62
2023/05/23 11:24:09;;;;;;;;;;;;;;;19.38;48.85;102258.50;5082141;28;19920;-61
2023/05/23 11:26:35;;;;;;;;;;;;;;;19.42;48.66;102253.56;5079531;28;20367;-61
2023/05/23 11:29:02;;;;;;;;;;;;;;;19.49;49.12;102251.72;5074426;28;20341;-61
2023/05/23 11:31:28;;;;;;;;;;;;;;;19.53;48.69;102247.66;5073776;28;19917;-61
2023/05/23 11:33:53;;;;;;;;;;;;;;;19.39;48.48;102253.94;5076360;28;19917;-62
2023/05/23 11:36:21;;;;;;;;;;;;;;;19.46;48.74;102255.66;5078946;28;20014;-62
2023/05/23 11:38:51;;;;;;;;;;;;;;;19.57;48.92;102254.31;5073099;28;19920;-62
2023/05/23 11:41:16;;;;;;;;;;;;;;;19.46;48.48;102255.66;5069861;28;19916;-62
2023/05/23 11:43:51;;;;;;;;;;;;;;;19.39;48.68;102262.03;5083026;28;19916;-62
2023/05/23 11:46:16;;;;;;;;;;;;;;;19.51;48.93;102257.75;5080995;28;20339;-62
2023/05/23 11:48:47;;;;;;;;;;;;;;;19.52;48.74;102263.97;5072056;28;19924;-61
2023/05/23 11:51:13;;;;;;;;;;;;;;;19.37;48.23;102266.75;5080611;28;19919;-61
2023/05/23 11:53:38;;;;;;;;;;;;;;;19.23;47.79;102264.97;5078762;28;20003;-62
2023/05/23 11:56:03;;;;;;;;;;;;;;;19.17;48.12;102263.88;5070715;28;19920;-61
2023/05/23 11:58:32;;;;;;;;;;;;;;;19.12;48.90;102266.31;5068958;28;20007;-62
2023/05/23 12:01:02;;;;;;;;;;;;;;;19.19;48.93;102270.75;5070058;28;19916;-62
2023/05/23 12:03:27;;;;;;;;;;;;;;;19.08;48.51;102265.00;5084899;28;19920;-62
2023/05/23 12:05:53;;;;;;;;;;;;;;;18.98;48.18;102265.34;5075926;28;19969;-61
2023/05/23 12:08:18;;;;;;;;;;;;;;;18.98;48.39;102272.59;5068938;28;19942;-62
2023/05/23 12:10:55;;;;;;;;;;;;;;;18.91;48.03;102282.47;5072558;28;20331;-62
2023/05/23 12:13:23;;;;;;;;;;;;;;;18.76;47.97;102282.47;5075427;28;19923;-62
2023/05/23 12:15:48;;;;;;;;;;;;;;;18.69;47.50;102274.34;5070932;28;19916;-61
2023/05/23 12:18:13;;;;;;;;;;;;;;;18.70;47.60;102275.16;5073772;28;19923;-61
2023/05/23 12:20:39;;;;;;;;;;;;;;;18.76;47.44;102275.25;5069532;28;19959;-61
2023/05/23 12:23:05;;;;;;;;;;;;;;;18.83;47.31;102280.72;5079792;28;20431;-61
2023/05/23 12:25:40;;;;;;;;;;;;;;;18.81;47.41;102282.78;5082588;28;19923;-61
2023/05/23 12:28:06;;;;;;;;;;;;;;;18.79;47.46;102282.97;5069283;28;19924;-60
2023/05/23 12:30:40;;;;;;;;;;;;;;;18.93;47.34;102289.31;5070652;28;19920;-61